Time;durP1;ratioP1;P1;durP2;ratioP2;P2;SDS_P1;SDS_P2;PMS_P1;PMS_P2;Temp;Humidity;BMP_temperature;BMP_pressure;BME280_temperature;BME280_humidity;BME280_pressure;Samples;Min_cycle;Max_cycle;Signal;HPM_P1;HPM_P2
2022/09/18 00:02:13;;;;;;;7.45;5.85;;;10.40;82.60;;;;;;5094413;28;20567;-15
2022/09/18 00:04:39;;;;;;;8.10;4.95;;;10.40;82.80;;;;;;5094469;28;20028;-17
2022/09/18 00:07:06;;;;;;;5.05;4.25;;;10.30;82.60;;;;;;5094115;28;20083;-17
2022/09/18 00:09:31;;;;;;;8.50;5.95;;;10.30;82.60;;;;;;5094628;28;20593;-16
2022/09/18 00:11:58;;;;;;;8.35;5.97;;;10.20;83.00;;;;;;5094667;28;20031;-18
2022/09/18 00:14:25;;;;;;;8.48;6.05;;;10.10;83.30;;;;;;5094210;28;20024;-16
2022/09/18 00:16:52;;;;;;;7.65;5.45;;;10.00;83.80;;;;;;5094322;28;20051;-17
2022/09/18 00:19:19;;;;;;;8.45;5.28;;;10.00;83.10;;;;;;5094531;28;20024;-16
2022/09/18 00:21:48;;;;;;;7.38;5.57;;;10.00;83.10;;;;;;5094586;28;20131;-15
2022/09/18 00:24:18;;;;;;;6.80;5.03;;;9.90;83.30;;;;;;5076018;28;20020;-18
2022/09/18 00:26:44;;;;;;;7.45;5.13;;;9.90;83.60;;;;;;5093955;28;20405;-16
2022/09/18 00:29:12;;;;;;;7.15;4.65;;;9.90;83.50;;;;;;5076337;28;20024;-17
2022/09/18 00:31:39;;;;;;;5.13;3.72;;;9.80;83.40;;;;;;5093875;28;20032;-18
2022/09/18 00:34:09;;;;;;;7.30;4.53;;;9.80;83.40;;;;;;5093985;28;20028;-17
2022/09/18 00:36:36;;;;;;;7.70;5.38;;;9.80;83.40;;;;;;5094229;28;20024;-17
2022/09/18 00:39:04;;;;;;;8.45;6.35;;;9.80;83.40;;;;;;5093698;28;20023;-16
2022/09/18 00:41:36;;;;;;;12.82;7.68;;;9.70;83.30;;;;;;5093871;28;20145;-15
2022/09/18 00:44:30;;;;;;;8.80;5.68;;;9.70;83.40;;;;;;5093786;28;20031;-16
2022/09/18 00:47:28;;;;;;;11.30;6.77;;;9.70;83.50;;;;;;5093822;28;20051;-16
2022/09/18 00:50:07;;;;;;;11.32;8.00;;;9.70;83.60;;;;;;5089960;28;20430;-18
2022/09/18 00:53:11;;;;;;;8.63;6.78;;;9.70;83.80;;;;;;5093962;28;20036;-16
2022/09/18 00:55:38;;;;;;;10.60;6.60;;;9.70;84.50;;;;;;5051280;28;20045;-15
2022/09/18 00:58:05;;;;;;;8.05;5.32;;;9.70;84.30;;;;;;5051220;28;20099;-16
2022/09/18 01:00:32;;;;;;;8.48;5.65;;;9.70;83.70;;;;;;5051305;28;20087;-16
2022/09/18 01:03:00;;;;;;;9.23;4.80;;;9.70;83.80;;;;;;5050837;28;20029;-17
2022/09/18 01:05:52;;;;;;;7.00;4.88;;;9.60;83.80;;;;;;5051116;28;20040;-16
2022/09/18 01:08:27;;;;;;;7.05;4.80;;;9.60;83.70;;;;;;5051182;28;20410;-16
2022/09/18 01:11:26;;;;;;;8.77;6.53;;;9.50;83.70;;;;;;5050792;28;20508;-16
2022/09/18 01:14:00;;;;;;;8.20;5.60;;;9.50;83.70;;;;;;5046024;28;20112;-16
2022/09/18 01:16:55;;;;;;;9.70;6.35;;;9.50;84.30;;;;;;5051407;28;20025;-18
2022/09/18 01:19:42;;;;;;;9.98;7.55;;;9.40;84.30;;;;;;5051188;28;20572;-18
2022/09/18 01:22:19;;;;;;;10.07;6.07;;;9.40;84.10;;;;;;5051245;28;20435;-18
2022/09/18 01:25:05;;;;;;;9.50;6.20;;;9.40;84.10;;;;;;5050635;28;20147;-16
2022/09/18 01:28:02;;;;;;;7.28;5.32;;;9.50;84.00;;;;;;5050876;28;20051;-17
2022/09/18 01:30:30;;;;;;;9.32;5.88;;;9.50;84.10;;;;;;5059192;28;20036;-18
2022/09/18 01:32:59;;;;;;;10.25;7.30;;;9.50;84.10;;;;;;5093156;28;20381;-17
2022/09/18 01:35:38;;;;;;;11.73;8.88;;;9.60;84.20;;;;;;5093756;28;20024;-17
2022/09/18 01:38:22;;;;;;;13.43;8.75;;;9.60;84.90;;;;;;5093452;28;20028;-18
2022/09/18 01:41:12;;;;;;;10.75;8.07;;;9.60;84.80;;;;;;5092799;28;20031;-16
2022/09/18 01:43:40;;;;;;;11.32;8.25;;;9.60;84.50;;;;;;5093524;28;20032;-18
2022/09/18 01:46:12;;;;;;;10.30;7.20;;;9.60;84.80;;;;;;5093315;28;20021;-18
2022/09/18 01:48:46;;;;;;;13.38;8.93;;;9.60;84.50;;;;;;5092958;28;20091;-18
2022/09/18 01:51:43;;;;;;;13.20;9.45;;;9.60;84.40;;;;;;5092798;28;20464;-16
2022/09/18 01:54:15;;;;;;;12.82;9.25;;;9.70;84.40;;;;;;5093299;28;20035;-17
2022/09/18 01:57:11;;;;;;;12.45;8.35;;;9.60;84.60;;;;;;5092875;28;20063;-18
2022/09/18 02:00:15;;;;;;;8.65;6.82;;;9.60;84.60;;;;;;5093264;28;20089;-17
2022/09/18 02:03:00;;;;;;;9.13;6.30;;;9.50;84.40;;;;;;5093046;28;20480;-16
2022/09/18 02:05:30;;;;;;;8.23;5.43;;;9.50;84.40;;;;;;5092853;28;20028;-17
2022/09/18 02:08:12;;;;;;;7.38;5.35;;;9.50;84.40;;;;;;5092825;28;20104;-17
2022/09/18 02:10:44;;;;;;;9.27;5.95;;;9.50;84.40;;;;;;5092675;28;20480;-17
2022/09/18 02:13:15;;;;;;;9.23;6.95;;;9.40;84.40;;;;;;5092546;28;20028;-18
2022/09/18 02:15:44;;;;;;;7.35;5.60;;;9.40;84.40;;;;;;5092792;28;20364;-16
2022/09/18 02:18:33;;;;;;;6.75;5.18;;;9.30;84.40;;;;;;5093022;28;20119;-18
2022/09/18 02:21:01;;;;;;;10.25;7.78;;;9.20;84.40;;;;;;5092629;28;20568;-18
2022/09/18 02:23:28;;;;;;;9.30;7.05;;;9.20;84.50;;;;;;5092916;28;20043;-18
2022/09/18 02:26:03;;;;;;;10.85;8.05;;;9.10;84.40;;;;;;5092541;28;20032;-17
2022/09/18 02:28:30;;;;;;;9.23;7.20;;;9.10;84.60;;;;;;5092619;28;20028;-15
2022/09/18 02:30:58;;;;;;;17.42;10.32;;;9.10;84.70;;;;;;5092702;28;20077;-18
2022/09/18 02:33:27;;;;;;;9.88;6.82;;;9.10;85.40;;;;;;5092566;28;20035;-16
2022/09/18 02:36:06;;;;;;;11.30;7.00;;;9.10;85.10;;;;;;5092848;28;20016;-16
2022/09/18 02:38:52;;;;;;;5.80;4.45;;;9.10;85.00;;;;;;5095865;28;20119;-17
2022/09/18 02:41:57;;;;;;;9.25;5.65;;;9.10;84.90;;;;;;5096297;28;20032;-16
2022/09/18 02:44:32;;;;;;;12.10;8.45;;;9.00;84.80;;;;;;5076931;28;20119;-16
2022/09/18 02:47:17;;;;;;;11.07;8.57;;;8.90;85.00;;;;;;5095811;28;20016;-16
2022/09/18 02:49:55;;;;;;;10.48;7.85;;;8.90;85.10;;;;;;5096008;28;20028;-18
2022/09/18 02:52:39;;;;;;;9.57;6.93;;;8.90;85.50;;;;;;5096191;28;20020;-18
2022/09/18 02:55:11;;;;;;;9.55;6.00;;;8.90;85.40;;;;;;5095832;28;20024;-17
2022/09/18 02:57:56;;;;;;;8.05;6.07;;;8.80;85.30;;;;;;5095832;28;20491;-17
2022/09/18 03:00:24;;;;;;;6.72;4.78;;;8.80;85.20;;;;;;5095770;28;20544;-18
2022/09/18 03:02:51;;;;;;;8.10;5.93;;;8.80;85.20;;;;;;5095494;28;20410;-16
2022/09/18 03:05:18;;;;;;;13.07;7.47;;;8.70;85.10;;;;;;5095919;28;20561;-17
2022/09/18 03:07:43;;;;;;;13.93;9.38;;;8.70;85.10;;;;;;5095382;28;20048;-18
2022/09/18 03:10:11;;;;;;;9.50;6.93;;;8.80;85.30;;;;;;5095835;28;20076;-17
2022/09/18 03:12:37;;;;;;;11.70;7.32;;;8.70;85.50;;;;;;5095805;28;20031;-16
2022/09/18 03:15:05;;;;;;;7.82;4.68;;;8.70;85.60;;;;;;5095520;28;20077;-18
2022/09/18 03:17:31;;;;;;;9.48;6.68;;;8.70;85.30;;;;;;5095681;28;20020;-16
2022/09/18 03:19:57;;;;;;;12.65;9.07;;;8.70;85.20;;;;;;5095375;28;20035;-19
2022/09/18 03:22:23;;;;;;;7.90;5.90;;;8.60;85.30;;;;;;5095208;28;20032;-18
2022/09/18 03:24:48;;;;;;;7.60;5.18;;;8.60;85.30;;;;;;5095245;28;20028;-18
2022/09/18 03:27:16;;;;;;;7.28;5.22;;;8.60;85.20;;;;;;5095514;28;20479;-18
2022/09/18 03:29:44;;;;;;;11.95;8.70;;;8.60;85.20;;;;;;5095520;28;20027;-17
2022/09/18 03:32:11;;;;;;;7.38;5.68;;;8.60;85.20;;;;;;5095430;28;20135;-17
2022/09/18 03:34:38;;;;;;;7.75;5.65;;;8.50;85.30;;;;;;5095359;28;20024;-18
2022/09/18 03:37:04;;;;;;;8.77;6.05;;;8.50;85.40;;;;;;5094922;28;20017;-15
2022/09/18 03:39:30;;;;;;;9.32;4.95;;;8.50;85.30;;;;;;5095172;28;20070;-17
2022/09/18 03:41:56;;;;;;;8.70;6.35;;;8.50;85.20;;;;;;5095039;28;20032;-17
2022/09/18 03:44:21;;;;;;;9.05;6.47;;;8.50;85.10;;;;;;5095119;28;20050;-17
2022/09/18 03:46:48;;;;;;;8.05;5.80;;;8.40;85.10;;;;;;5094911;28;20023;-16
2022/09/18 03:49:14;;;;;;;7.32;4.80;;;8.40;85.10;;;;;;5094653;28;20049;-16
2022/09/18 03:51:39;;;;;;;8.95;6.55;;;8.40;85.10;;;;;;5095121;28;20063;-17
2022/09/18 03:54:05;;;;;;;11.65;8.15;;;8.40;85.10;;;;;;5094651;28;20024;-17
2022/09/18 03:56:31;;;;;;;12.35;8.85;;;8.40;85.10;;;;;;5094703;28;20104;-16
2022/09/18 03:58:57;;;;;;;9.52;6.75;;;8.40;85.10;;;;;;5094312;28;20127;-17
2022/09/18 04:01:23;;;;;;;9.07;6.05;;;8.30;85.30;;;;;;5094743;28;20027;-17
2022/09/18 04:03:50;;;;;;;6.57;4.80;;;8.30;85.30;;;;;;5094889;28;20046;-17
2022/09/18 04:06:16;;;;;;;8.75;6.80;;;8.30;85.30;;;;;;5094730;28;20043;-16
2022/09/18 04:08:42;;;;;;;10.75;7.18;;;8.20;85.40;;;;;;5094297;28;20106;-16
2022/09/18 04:11:08;;;;;;;10.82;6.20;;;8.20;85.60;;;;;;5094096;28;20024;-17
2022/09/18 04:13:34;;;;;;;10.18;7.43;;;8.20;85.80;;;;;;5094934;28;20603;-17
2022/09/18 04:16:00;;;;;;;13.95;9.88;;;8.30;85.60;;;;;;5094483;28;20430;-18
2022/09/18 04:18:26;;;;;;;13.68;9.70;;;8.30;85.50;;;;;;5094318;28;20112;-17
2022/09/18 04:20:52;;;;;;;10.18;7.15;;;8.30;85.50;;;;;;5093930;28;20054;-16
2022/09/18 04:23:19;;;;;;;11.73;9.10;;;8.40;85.40;;;;;;5094048;28;20148;-17
2022/09/18 04:25:45;;;;;;;12.77;7.57;;;8.30;85.50;;;;;;5094319;28;20032;-18
2022/09/18 04:28:11;;;;;;;13.52;9.30;;;8.30;85.30;;;;;;5094344;28;20537;-17
2022/09/18 04:30:37;;;;;;;8.57;5.93;;;8.30;85.50;;;;;;5094093;28;20070;-16
2022/09/18 04:33:03;;;;;;;10.95;7.20;;;8.30;85.50;;;;;;5094040;28;20028;-17
2022/09/18 04:35:30;;;;;;;12.88;9.10;;;8.30;85.40;;;;;;5094254;28;20024;-17
2022/09/18 04:37:56;;;;;;;14.13;9.85;;;8.20;85.30;;;;;;5093881;28;20548;-18
2022/09/18 04:40:22;;;;;;;9.73;6.43;;;8.20;85.40;;;;;;5093745;28;20024;-17
2022/09/18 04:42:48;;;;;;;12.35;6.57;;;8.20;85.50;;;;;;5093462;28;20024;-18
2022/09/18 04:45:14;;;;;;;11.27;7.68;;;8.20;85.50;;;;;;5093826;28;20099;-16
2022/09/18 04:47:40;;;;;;;8.45;5.68;;;8.20;85.60;;;;;;5093712;28;20027;-17
2022/09/18 04:50:07;;;;;;;13.43;9.18;;;8.20;85.60;;;;;;5093732;28;20047;-17
2022/09/18 04:52:34;;;;;;;13.18;8.63;;;8.20;85.60;;;;;;5093562;28;20028;-16
2022/09/18 04:55:01;;;;;;;13.63;8.65;;;8.10;85.60;;;;;;5093727;28;20032;-16
2022/09/18 04:57:27;;;;;;;11.43;8.50;;;8.10;85.90;;;;;;5093464;28;20032;-16
2022/09/18 04:59:53;;;;;;;15.05;9.60;;;8.10;86.10;;;;;;5092777;28;20065;-19
2022/09/18 05:02:19;;;;;;;7.57;5.47;;;8.10;86.00;;;;;;5093720;28;20036;-17
2022/09/18 05:04:45;;;;;;;8.50;5.78;;;8.10;85.80;;;;;;5093452;28;20040;-16
2022/09/18 05:07:11;;;;;;;8.43;6.07;;;8.10;85.80;;;;;;5092983;28;20048;-16
2022/09/18 05:09:37;;;;;;;10.15;6.70;;;8.10;85.80;;;;;;5075830;28;20028;-16
2022/09/18 05:12:03;;;;;;;10.10;7.70;;;8.10;85.70;;;;;;5093583;28;20105;-17
2022/09/18 05:14:29;;;;;;;13.93;10.07;;;8.10;85.70;;;;;;5093335;28;20482;-18
2022/09/18 05:16:55;;;;;;;11.05;8.55;;;8.20;85.70;;;;;;5093147;28;20027;-16
2022/09/18 05:19:22;;;;;;;10.23;7.85;;;8.20;85.90;;;;;;5093252;28;20050;-17
2022/09/18 05:21:49;;;;;;;8.90;6.38;;;8.20;85.90;;;;;;5093196;28;20059;-17
2022/09/18 05:24:16;;;;;;;14.65;10.68;;;8.20;85.90;;;;;;5093429;28;20024;-18
2022/09/18 05:26:43;;;;;;;14.70;9.52;;;8.30;85.80;;;;;;5093093;28;20047;-16
2022/09/18 05:29:10;;;;;;;15.38;10.38;;;8.30;85.70;;;;;;5093003;28;20074;-18
2022/09/18 05:31:36;;;;;;;16.58;10.38;;;8.40;86.30;;;;;;5093422;28;20032;-17
2022/09/18 05:34:02;;;;;;;12.05;9.05;;;8.40;86.90;;;;;;5093322;28;20024;-18
2022/09/18 05:36:28;;;;;;;12.27;8.80;;;8.50;86.80;;;;;;5093387;28;20089;-16
2022/09/18 05:38:54;;;;;;;15.98;9.75;;;8.60;87.10;;;;;;5092887;28;20484;-16
2022/09/18 05:41:20;;;;;;;13.52;9.82;;;8.70;88.30;;;;;;5092841;28;20020;-16
2022/09/18 05:43:46;;;;;;;13.18;8.93;;;8.80;87.90;;;;;;5093039;28;20467;-16
2022/09/18 05:46:13;;;;;;;12.73;7.82;;;8.90;87.10;;;;;;5093025;28;20051;-16
2022/09/18 05:48:39;;;;;;;10.05;7.03;;;9.00;86.60;;;;;;5092984;28;20426;-16
2022/09/18 05:51:05;;;;;;;10.68;6.88;;;9.10;86.30;;;;;;5093063;28;20074;-16
2022/09/18 05:53:31;;;;;;;9.40;6.72;;;9.20;86.30;;;;;;5092919;28;20452;-17
2022/09/18 05:56:00;;;;;;;13.25;9.55;;;9.30;85.80;;;;;;5093147;28;20024;-17
2022/09/18 05:58:26;;;;;;;9.35;6.18;;;9.40;85.60;;;;;;5092835;28;20024;-16
2022/09/18 06:00:56;;;;;;;10.20;6.15;;;9.60;85.50;;;;;;5092995;28;20120;-17
2022/09/18 06:03:22;;;;;;;10.27;7.40;;;9.70;85.00;;;;;;5093517;28;20131;-16
2022/09/18 06:05:53;;;;;;;10.32;7.75;;;9.90;85.10;;;;;;5093081;28;20063;-16
2022/09/18 06:08:19;;;;;;;17.15;12.82;;;10.00;85.10;;;;;;5092658;28;20048;-17
2022/09/18 06:10:46;;;;;;;13.30;10.15;;;10.10;85.40;;;;;;5093366;28;20070;-16
2022/09/18 06:13:14;;;;;;;13.52;9.63;;;10.30;85.50;;;;;;5096536;28;20032;-16
2022/09/18 06:15:45;;;;;;;10.20;7.07;;;10.40;86.60;;;;;;5096908;28;20039;-16
2022/09/18 06:18:13;;;;;;;12.18;7.88;;;10.60;86.70;;;;;;5096629;28;20027;-16
2022/09/18 06:20:41;;;;;;;8.45;5.63;;;10.80;86.20;;;;;;5096809;28;20030;-16
2022/09/18 06:23:07;;;;;;;11.20;6.45;;;11.00;85.70;;;;;;5096487;28;20078;-16
2022/09/18 06:25:33;;;;;;;10.20;6.97;;;11.20;85.90;;;;;;5096335;28;20024;-17
2022/09/18 06:27:59;;;;;;;11.68;7.35;;;11.40;85.90;;;;;;5096590;28;20063;-15
2022/09/18 06:30:26;;;;;;;9.18;6.25;;;11.60;85.60;;;;;;5096930;28;20099;-16
2022/09/18 06:32:53;;;;;;;8.82;6.38;;;11.80;85.10;;;;;;5096375;28;20357;-13
2022/09/18 06:35:19;;;;;;;9.05;6.10;;;12.00;84.50;;;;;;5096548;28;20032;-15
2022/09/18 06:37:45;;;;;;;9.75;6.65;;;12.20;84.00;;;;;;5096558;28;20495;-16
2022/09/18 06:40:12;;;;;;;9.13;6.15;;;12.40;83.80;;;;;;5096110;28;20027;-16
2022/09/18 06:42:37;;;;;;;7.90;5.50;;;12.50;83.70;;;;;;5096006;28;20036;-16
2022/09/18 06:45:04;;;;;;;8.32;6.32;;;12.80;83.40;;;;;;5094664;28;20028;-16
2022/09/18 06:47:30;;;;;;;11.65;6.80;;;13.00;82.50;;;;;;5096274;28;20105;-15
2022/09/18 06:49:56;;;;;;;8.25;5.80;;;13.30;82.90;;;;;;5096189;28;20115;-16
2022/09/18 06:52:22;;;;;;;6.80;4.82;;;13.60;82.50;;;;;;5095916;28;20016;-15
2022/09/18 06:54:48;;;;;;;9.65;6.20;;;13.90;81.90;;;;;;5095955;28;20028;-18
2022/09/18 06:57:14;;;;;;;6.95;4.82;;;14.20;80.70;;;;;;5096769;28;20024;-15
2022/09/18 06:59:40;;;;;;;9.98;5.38;;;14.30;80.30;;;;;;5095775;28;20043;-16
2022/09/18 07:02:12;;;;;;;7.63;5.13;;;14.50;80.00;;;;;;5095996;28;20036;-16
2022/09/18 07:04:40;;;;;;;5.83;4.13;;;14.60;80.10;;;;;;5095772;28;20028;-17
2022/09/18 07:07:07;;;;;;;7.28;4.93;;;14.80;79.70;;;;;;5095297;28;20063;-14
2022/09/18 07:09:33;;;;;;;8.02;4.30;;;15.00;78.50;;;;;;5095964;28;20024;-16
2022/09/18 07:11:58;;;;;;;6.32;4.30;;;15.30;78.70;;;;;;5095432;28;20024;-14
2022/09/18 07:14:24;;;;;;;4.38;3.53;;;15.50;77.10;;;;;;5095714;28;20103;-16
2022/09/18 07:16:50;;;;;;;7.35;4.25;;;15.70;77.50;;;;;;5095342;28;20032;-15
2022/09/18 07:19:16;;;;;;;6.05;4.10;;;16.00;76.70;;;;;;5095696;28;20032;-13
2022/09/18 07:21:42;;;;;;;4.47;3.65;;;16.40;75.40;;;;;;5095722;28;20436;-15
2022/09/18 07:24:08;;;;;;;5.57;3.88;;;16.80;74.80;;;;;;5094476;28;20020;-17
2022/09/18 07:26:34;;;;;;;8.25;4.30;;;16.90;72.70;;;;;;5095167;28;20023;-16
2022/09/18 07:28:59;;;;;;;4.90;3.95;;;17.10;70.80;;;;;;5095085;28;20052;-15
2022/09/18 07:31:26;;;;;;;6.35;4.07;;;17.30;71.70;;;;;;5095451;28;20051;-17
2022/09/18 07:33:53;;;;;;;6.50;4.18;;;17.40;68.10;;;;;;5095161;28;20521;-16
2022/09/18 07:36:20;;;;;;;4.65;3.70;;;17.40;68.50;;;;;;5095093;28;20039;-15
2022/09/18 07:38:50;;;;;;;4.68;3.47;;;17.40;66.00;;;;;;5095107;28;20039;-15
2022/09/18 07:41:17;;;;;;;4.70;3.53;;;17.40;68.60;;;;;;5095135;28;20054;-15
2022/09/18 07:43:43;;;;;;;4.78;3.63;;;17.50;69.30;;;;;;5094926;28;20027;-15
2022/09/18 07:46:10;;;;;;;4.75;3.22;;;17.60;68.30;;;;;;5095065;28;20476;-15
2022/09/18 07:48:36;;;;;;;4.38;3.38;;;17.70;68.40;;;;;;5095137;28;20511;-16
2022/09/18 07:51:03;;;;;;;7.28;3.47;;;17.80;68.70;;;;;;5094525;28;20032;-16
2022/09/18 07:53:30;;;;;;;4.68;3.35;;;17.90;68.70;;;;;;5094587;28;20043;-15
2022/09/18 07:55:56;;;;;;;5.00;3.22;;;18.10;68.10;;;;;;5095022;28;20035;-15
2022/09/18 07:58:23;;;;;;;4.78;3.63;;;18.40;67.80;;;;;;5094644;28;20062;-16
2022/09/18 08:00:50;;;;;;;5.05;3.20;;;18.60;67.20;;;;;;5094632;28;20445;-17
2022/09/18 08:03:17;;;;;;;5.93;3.30;;;18.80;64.60;;;;;;5094769;28;20024;-16
2022/09/18 08:05:43;;;;;;;4.78;3.47;;;19.00;65.60;;;;;;5095088;28;20495;-15
2022/09/18 08:08:12;;;;;;;4.78;2.80;;;19.30;64.60;;;;;;5094324;28;20040;-14
2022/09/18 08:10:39;;;;;;;3.53;2.90;;;19.50;64.10;;;;;;5094519;28;20058;-16
2022/09/18 08:13:05;;;;;;;4.55;3.30;;;19.60;64.60;;;;;;5094420;28;20020;-16
2022/09/18 08:15:33;;;;;;;6.15;3.40;;;19.70;63.10;;;;;;5094330;28;20480;-15
2022/09/18 08:18:00;;;;;;;3.45;2.78;;;19.70;61.80;;;;;;5094485;28;20115;-15
2022/09/18 08:20:26;;;;;;;8.48;4.90;;;19.70;63.80;;;;;;5094212;28;20028;-16
2022/09/18 08:22:52;;;;;;;4.80;3.60;;;19.80;62.50;;;;;;5093889;28;20530;-16
2022/09/18 08:25:19;;;;;;;5.60;3.22;;;19.70;61.80;;;;;;5094032;28;20027;-15
2022/09/18 08:27:46;;;;;;;3.53;2.70;;;19.80;63.40;;;;;;5094490;28;20042;-16
2022/09/18 08:30:16;;;;;;;4.05;3.00;;;19.90;63.80;;;;;;5094310;28;20023;-16
2022/09/18 08:32:42;;;;;;;4.57;3.15;;;20.20;61.50;;;;;;5094010;28;20025;-15
2022/09/18 08:35:09;;;;;;;4.88;2.83;;;20.30;61.10;;;;;;5094034;28;20035;-15
2022/09/18 08:37:36;;;;;;;4.07;2.80;;;20.40;60.90;;;;;;5093905;28;20035;-17
2022/09/18 08:40:04;;;;;;;4.90;3.45;;;20.60;60.30;;;;;;5093824;28;20383;-17
2022/09/18 08:42:33;;;;;;;5.22;3.25;;;20.70;58.70;;;;;;5093641;28;20479;-16
2022/09/18 08:45:24;;;;;;;3.33;2.53;;;20.70;60.90;;;;;;5093644;28;20032;-17
2022/09/18 08:48:03;;;;;;;3.50;2.70;;;20.80;60.70;;;;;;5093609;28;20032;-16
2022/09/18 08:50:33;;;;;;;4.00;2.83;;;20.90;60.10;;;;;;5093753;28;20051;-15
2022/09/18 08:53:19;;;;;;;5.75;3.03;;;21.20;58.70;;;;;;5093567;28;20467;-15
2022/09/18 08:55:47;;;;;;;8.45;4.72;;;21.40;58.10;;;;;;5093944;28;20039;-16
2022/09/18 08:58:25;;;;;;;4.80;2.97;;;21.60;57.60;;;;;;5093769;28;20028;-16
2022/09/18 09:01:01;;;;;;;5.55;2.60;;;21.90;57.30;;;;;;5093299;28;20035;-15
2022/09/18 09:04:01;;;;;;;3.72;2.55;;;21.90;57.00;;;;;;5094176;28;20028;-17
2022/09/18 09:07:06;;;;;;;7.32;2.70;;;22.20;57.40;;;;;;5093766;28;20074;-15
2022/09/18 09:10:04;;;;;;;3.85;2.75;;;22.50;57.20;;;;;;5053229;28;20598;-15
2022/09/18 09:13:12;;;;;;;2.95;2.47;;;23.00;54.90;;;;;;5053362;28;20051;-15
2022/09/18 09:16:01;;;;;;;4.82;2.42;;;23.30;53.30;;;;;;5053715;28;20077;-16
2022/09/18 09:18:29;;;;;;;2.95;2.17;;;23.40;52.80;;;;;;5053391;28;20017;-16
2022/09/18 09:21:03;;;;;;;3.40;2.40;;;23.50;53.90;;;;;;5053066;28;20025;-16
2022/09/18 09:23:28;;;;;;;;;;;23.60;51.80;;;;;;5052223;28;20053;-15
2022/09/18 09:26:14;;;;;;;3.38;2.20;;;23.80;52.00;;;;;;5053204;28;19947;-15
2022/09/18 09:28:55;;;;;;;2.67;2.10;;;24.00;52.20;;;;;;5053118;28;20026;-15
2022/09/18 09:31:31;;;;;;;3.03;2.35;;;24.30;49.30;;;;;;5053276;28;20051;-16
2022/09/18 09:33:58;;;;;;;2.92;2.05;;;24.40;49.60;;;;;;5053349;28;20025;-15
2022/09/18 09:36:29;;;;;;;3.47;1.90;;;24.60;49.60;;;;;;5052912;28;20499;-14
2022/09/18 09:39:03;;;;;;;7.15;2.70;;;24.80;49.40;;;;;;5052788;28;20032;-16
2022/09/18 09:41:48;;;;;;;2.90;2.25;;;25.00;48.40;;;;;;5052729;28;20033;-15
2022/09/18 09:44:37;;;;;;;2.53;2.20;;;25.20;48.50;;;;;;5068395;28;20108;-15
2022/09/18 09:47:03;;;;;;;4.55;2.60;;;25.40;48.60;;;;;;5055489;28;20021;-15
2022/09/18 09:49:37;;;;;;;3.67;2.58;;;25.50;47.70;;;;;;5056776;28;20024;-15
2022/09/18 09:52:27;;;;;;;2.35;2.15;;;25.70;47.20;;;;;;5057180;28;20040;-17
2022/09/18 09:55:13;;;;;;;2.75;2.00;;;25.90;45.20;;;;;;5072121;28;20444;-16
2022/09/18 09:57:58;;;;;;;3.30;2.10;;;25.90;45.20;;;;;;5056720;28;20029;-15
2022/09/18 10:00:24;;;;;;;3.78;1.83;;;25.90;44.40;;;;;;5057033;28;20036;-16
2022/09/18 10:03:28;;;;;;;2.60;2.28;;;26.00;44.20;;;;;;5056645;28;20029;-15
2022/09/18 10:06:19;;;;;;;3.13;2.05;;;26.20;43.00;;;;;;5057277;28;20112;-15
2022/09/18 10:08:58;;;;;;;2.72;1.90;;;26.20;43.30;;;;;;5093208;28;20044;-15
2022/09/18 10:11:25;;;;;;;3.65;2.20;;;26.20;42.40;;;;;;5096653;28;20020;-15
2022/09/18 10:13:59;;;;;;;3.10;2.33;;;26.20;42.60;;;;;;5097001;28;20028;-15
2022/09/18 10:16:33;;;;;;;2.20;2.00;;;25.80;42.80;;;;;;5096586;28;20395;-15
2022/09/18 10:19:00;;;;;;;3.05;1.85;;;25.50;43.60;;;;;;5096477;28;20442;-15
2022/09/18 10:21:34;;;;;;;2.38;1.92;;;25.50;44.40;;;;;;5096939;28;20028;-15
2022/09/18 10:24:16;;;;;;;3.08;2.53;;;25.80;43.80;;;;;;5096880;28;20052;-15
2022/09/18 10:26:50;;;;;;;4.20;2.00;;;26.10;41.20;;;;;;5096669;28;20058;-16
2022/09/18 10:29:17;;;;;;;2.90;2.20;;;26.20;42.20;;;;;;5096349;28;20365;-15
2022/09/18 10:31:48;;;;;;;2.60;1.88;;;26.50;41.90;;;;;;5096296;28;20028;-14
2022/09/18 10:34:32;;;;;;;3.88;2.35;;;26.70;40.80;;;;;;5096662;28;20027;-15
2022/09/18 10:36:59;;;;;;;1.73;1.63;;;27.00;39.40;;;;;;5096139;28;20028;-15
2022/09/18 10:39:28;;;;;;;2.33;1.90;;;27.10;39.10;;;;;;5096169;28;20031;-15
2022/09/18 10:42:00;;;;;;;1.98;1.75;;;27.40;38.20;;;;;;5096309;28;20106;-15
2022/09/18 10:44:34;;;;;;;3.78;2.03;;;27.60;38.80;;;;;;5096166;28;20103;-15
2022/09/18 10:47:19;;;;;;;1.40;1.30;;;28.00;37.10;;;;;;5095840;28;20479;-16
2022/09/18 10:49:58;;;;;;;2.78;1.80;;;28.20;36.90;;;;;;5096253;28;20024;-16
2022/09/18 10:52:33;;;;;;;1.60;1.50;;;28.50;35.40;;;;;;5096072;28;20483;-15
2022/09/18 10:55:08;;;;;;;2.72;1.50;;;28.80;34.90;;;;;;5095933;28;20036;-15
2022/09/18 10:58:10;;;;;;;2.45;1.70;;;28.90;35.60;;;;;;5094540;28;20048;-15
2022/09/18 11:00:51;;;;;;;2.25;1.70;;;28.80;35.20;;;;;;5094254;28;20111;-15
2022/09/18 11:03:38;;;;;;;2.33;1.98;;;28.40;36.00;;;;;;5095740;28;20085;-16
2022/09/18 11:06:18;;;;;;;3.28;1.30;;;27.80;36.90;;;;;;5095960;28;20035;-15
2022/09/18 11:08:50;;;;;;;2.63;1.90;;;27.50;38.60;;;;;;5095544;28;20487;-16
2022/09/18 11:11:31;;;;;;;4.15;1.98;;;27.90;37.20;;;;;;5095815;28;20017;-15
2022/09/18 11:13:58;;;;;;;1.75;1.45;;;28.40;36.60;;;;;;5095533;28;20063;-15
2022/09/18 11:16:29;;;;;;;1.95;1.85;;;28.90;35.70;;;;;;5095746;28;20013;-15
2022/09/18 11:19:14;;;;;;;2.70;1.35;;;29.40;34.70;;;;;;5077234;28;20478;-15
2022/09/18 11:22:26;;;;;;;2.55;2.00;;;29.70;35.10;;;;;;5095783;28;20132;-15
2022/09/18 11:25:15;;;;;;;1.80;1.67;;;30.00;34.20;;;;;;5094907;28;20024;-15
2022/09/18 11:27:59;;;;;;;3.15;1.83;;;29.90;32.90;;;;;;5095144;28;20031;-15
2022/09/18 11:30:28;;;;;;;2.35;1.83;;;29.50;34.20;;;;;;5077639;28;20491;-16
2022/09/18 11:33:16;;;;;;;3.08;1.55;;;29.40;34.80;;;;;;5094945;28;20537;-15
2022/09/18 11:35:48;;;;;;;1.70;1.60;;;29.60;34.50;;;;;;5095139;28;20028;-15
2022/09/18 11:38:18;;;;;;;2.63;1.95;;;29.80;34.40;;;;;;5095391;28;20434;-16
2022/09/18 11:40:50;;;;;;;2.55;1.67;;;29.80;33.50;;;;;;5095086;28;20077;-16
2022/09/18 11:43:26;;;;;;;1.47;1.37;;;29.40;32.50;;;;;;5095235;28;20031;-17
2022/09/18 11:45:58;;;;;;;2.58;1.60;;;28.90;32.70;;;;;;5077491;28;20028;-17
2022/09/18 11:48:35;;;;;;;1.40;1.30;;;28.60;33.40;;;;;;5095087;28;20024;-16
2022/09/18 11:51:13;;;;;;;3.03;1.35;;;28.80;33.60;;;;;;5094619;28;20341;-16
2022/09/18 11:53:44;;;;;;;2.45;1.40;;;29.30;33.40;;;;;;5094791;28;20360;-15
2022/09/18 11:56:24;;;;;;;1.52;1.13;;;29.90;32.70;;;;;;5094835;28;20027;-15
2022/09/18 11:59:30;;;;;;;2.67;1.25;;;30.40;31.90;;;;;;5094500;28;20024;-15
2022/09/18 12:02:03;;;;;;;2.50;1.70;;;30.90;31.30;;;;;;5060776;28;20499;-15
2022/09/18 12:04:39;;;;;;;2.08;1.50;;;31.20;30.40;;;;;;5094899;28;20028;-16
2022/09/18 12:07:23;;;;;;;2.08;1.33;;;31.50;29.00;;;;;;5094294;28;20403;-16
2022/09/18 12:10:20;;;;;;;1.17;1.02;;;31.70;28.00;;;;;;5094490;28;20387;-16
2022/09/18 12:13:05;;;;;;;1.52;1.10;;;31.80;29.10;;;;;;5094392;28;20377;-15
2022/09/18 12:15:37;;;;;;;1.75;1.30;;;32.00;28.90;;;;;;5094749;28;20027;-16
2022/09/18 12:18:13;;;;;;;1.60;1.50;;;32.00;28.10;;;;;;5094670;28;20091;-16
2022/09/18 12:20:52;;;;;;;2.03;1.23;;;32.10;28.60;;;;;;5094226;28;20016;-16
2022/09/18 12:23:26;;;;;;;2.83;1.63;;;32.30;28.10;;;;;;5094178;28;20507;-16
2022/09/18 12:26:28;;;;;;;1.30;1.20;;;32.40;28.30;;;;;;5094206;28;20030;-15
2022/09/18 12:29:21;;;;;;;2.22;1.60;;;32.60;28.50;;;;;;5094034;28;20024;-15
2022/09/18 12:32:02;;;;;;;1.85;1.40;;;32.90;28.50;;;;;;5089542;28;20031;-15
2022/09/18 12:35:00;;;;;;;1.85;1.67;;;32.80;27.30;;;;;;5094372;28;20072;-16
2022/09/18 12:37:56;;;;;;;1.98;1.88;;;32.30;27.70;;;;;;5094498;28;20020;-17
2022/09/18 12:40:28;;;;;;;2.00;1.80;;;31.70;28.50;;;;;;5074280;28;20040;-15
2022/09/18 12:43:00;;;;;;;2.27;2.07;;;30.80;29.70;;;;;;5093549;28;20125;-15
2022/09/18 12:45:49;;;;;;;2.63;1.60;;;30.00;30.50;;;;;;5094355;28;20024;-16
2022/09/18 12:48:29;;;;;;;1.50;1.40;;;29.70;30.90;;;;;;5086445;28;20044;-15
2022/09/18 12:51:29;;;;;;;1.35;1.10;;;29.70;31.60;;;;;;5093916;28;20020;-16
2022/09/18 12:54:00;;;;;;;2.47;0.98;;;29.90;31.50;;;;;;5093706;28;20028;-16
2022/09/18 12:56:49;;;;;;;1.35;1.25;;;30.30;31.20;;;;;;5093968;28;20021;-16
2022/09/18 12:59:44;;;;;;;1.98;1.30;;;30.40;29.20;;;;;;5093560;28;20498;-16
2022/09/18 13:02:22;;;;;;;1.35;1.15;;;30.00;29.80;;;;;;5093536;28;20562;-15
2022/09/18 13:04:58;;;;;;;1.25;0.93;;;29.70;30.80;;;;;;5093354;28;20032;-16
2022/09/18 13:07:33;;;;;;;1.65;1.42;;;29.50;31.50;;;;;;5093297;28;20083;-16
2022/09/18 13:10:03;;;;;;;2.00;1.33;;;29.50;31.50;;;;;;5093746;28;20103;-16
2022/09/18 13:13:25;;;;;;;2.15;1.40;;;29.50;31.20;;;;;;5093343;28;20562;-16
2022/09/18 13:16:07;;;;;;;1.92;1.40;;;29.30;32.50;;;;;;5047976;28;20467;-16
2022/09/18 13:18:40;;;;;;;2.30;1.80;;;29.50;32.30;;;;;;5051137;28;20480;-16
2022/09/18 13:21:17;;;;;;;1.85;1.40;;;30.00;32.10;;;;;;5050201;28;20199;-16